Terminal Aerodrome Forecast
Issued by NWS Wilmington, OH

Current Version | Previous Version | Graphics & Text | Print | Product List | Glossary On
Versions: 1 2 3 4 5 6 7 8 9 10 11 12 13 14 15 16 17 18 19
000
FTUS41 KILN 281000 AAA
TAFILN
TAF AMD
KILN 281009Z 2810/2906 00000KT P6SM SCT100 OVC250
      TEMPO 2810/2811 5SM BR
     FM281400 05004KT P6SM FEW050 OVC250
     FM290000 VRB03KT P6SM SCT250=

USA.gov is the U.S. government's official web portal to all federal, state and local government web resources and services.